Thornton, Washington
Current Conditions -  °F | °C
As of 1:53 AM on Sunday 26 Oct 2014 (Local Time) from KPUW Reporting Station
Clear Clear  
Wind Chill: 42°   Ceiling: Unl
Heat Index: 49°   Visibility: 10mi
Dew Point: 37°   Wind: 23mph
Humidity: 64%   Direction: 240°WSW
Pressure: 29.82"   Gusts: 36mph
Location:  47.12°N, 117.39°W
Report Text: KPUW 260853Z AUTO 24020G31KT 10SM CLR 09/03 A2982 RMK AO2 PK WND 24040/0811 SLP095 60001 T00940028 53036
Loading
Personal Weather Stations






























Interactive Weather Map
Tropical Storm Tracking
New forecast layout! Learn more

10-Day Weather Forecast

Advertisements
Track Severe Weather on mobile